Time;durP1;ratioP1;P1;durP2;ratioP2;P2;SDS_P1;SDS_P2;PMS_P1;PMS_P2;Temp;Humidity;BMP_temperature;BMP_pressure;BME280_temperature;BME280_humidity;BME280_pressure;Samples;Min_cycle;Max_cycle;Signal;HPM_P1;HPM_P2
2023/02/18 00:02:11;;;;;;;12.82;7.18;;;12.10;86.90;;;;;;5042723;28;20068;-57
2023/02/18 00:04:36;;;;;;;13.55;6.35;;;12.10;87.10;;;;;;5044057;28;20059;-58
2023/02/18 00:07:02;;;;;;;18.67;7.80;;;12.10;87.30;;;;;;5046411;28;20144;-59
2023/02/18 00:09:28;;;;;;;14.93;7.25;;;12.10;87.40;;;;;;5047034;28;20040;-58
2023/02/18 00:11:53;;;;;;;15.80;7.15;;;12.00;87.60;;;;;;5074328;28;20021;-59
2023/02/18 00:14:19;;;;;;;21.70;9.48;;;12.00;87.70;;;;;;5049123;28;20033;-59
2023/02/18 00:16:45;;;;;;;25.10;9.25;;;12.00;88.00;;;;;;5045027;28;20025;-58
2023/02/18 00:19:17;;;;;;;24.50;9.23;;;11.90;88.10;;;;;;5046004;28;20021;-58
2023/02/18 00:21:44;;;;;;;16.17;9.45;;;11.90;88.20;;;;;;5045403;28;20040;-58
2023/02/18 00:24:14;;;;;;;21.60;9.32;;;11.90;88.20;;;;;;5046240;28;20025;-58
2023/02/18 00:26:40;;;;;;;12.52;6.95;;;11.90;88.20;;;;;;5042290;28;20033;-65
2023/02/18 00:29:06;;;;;;;19.52;9.82;;;11.90;88.20;;;;;;5040034;28;20111;-65
2023/02/18 00:31:35;;;;;;;35.72;10.93;;;11.90;88.20;;;;;;5041902;28;20033;-65
2023/02/18 00:34:02;;;;;;;23.17;10.63;;;11.90;88.20;;;;;;5041004;28;20469;-64
2023/02/18 00:36:29;;;;;;;20.38;10.20;;;11.90;88.30;;;;;;5041067;28;20029;-64
2023/02/18 00:38:57;;;;;;;12.45;8.40;;;11.90;88.30;;;;;;5037845;28;20033;-64
2023/02/18 00:41:25;;;;;;;20.67;10.35;;;11.90;88.20;;;;;;5036052;28;20049;-64
2023/02/18 00:43:51;;;;;;;25.23;9.18;;;11.90;88.30;;;;;;5050459;28;20033;-66
2023/02/18 00:46:17;;;;;;;16.38;10.23;;;11.80;88.40;;;;;;5067884;28;20070;-65
2023/02/18 00:48:43;;;;;;;21.75;9.95;;;11.80;88.60;;;;;;5075181;28;20033;-64
2023/02/18 00:51:09;;;;;;;17.98;9.90;;;11.80;88.70;;;;;;5048638;28;20032;-65
2023/02/18 00:53:35;;;;;;;19.73;9.38;;;11.70;88.90;;;;;;5038502;28;20033;-65
2023/02/18 00:56:01;;;;;;;21.98;8.68;;;11.70;89.10;;;;;;5043062;28;20025;-65
2023/02/18 00:58:27;;;;;;;24.20;10.18;;;11.70;89.10;;;;;;5046482;28;20036;-65
2023/02/18 01:00:53;;;;;;;21.50;9.35;;;11.70;89.10;;;;;;5051795;28;20456;-64
2023/02/18 01:03:21;;;;;;;18.48;9.70;;;11.70;89.10;;;;;;5051764;28;20024;-64
2023/02/18 01:05:46;;;;;;;17.33;10.13;;;11.80;89.10;;;;;;5038712;28;20105;-58
2023/02/18 01:08:12;;;;;;;26.60;12.27;;;11.80;89.00;;;;;;5050981;28;20112;-58
2023/02/18 01:10:44;;;;;;;27.38;10.68;;;11.80;89.10;;;;;;5051404;28;20565;-59
2023/02/18 01:13:11;;;;;;;22.35;9.30;;;11.80;89.20;;;;;;5052107;28;20511;-58
2023/02/18 01:15:38;;;;;;;25.23;10.95;;;11.70;89.30;;;;;;5051648;28;20025;-57
2023/02/18 01:18:04;;;;;;;20.20;9.20;;;11.70;89.40;;;;;;5050759;28;20029;-58
2023/02/18 01:20:30;;;;;;;16.27;9.70;;;11.70;89.40;;;;;;5051653;28;20009;-58
2023/02/18 01:22:55;;;;;;;12.90;8.32;;;11.70;89.40;;;;;;5051446;28;20021;-57
2023/02/18 01:25:21;;;;;;;14.23;7.25;;;11.70;89.30;;;;;;5051938;28;20021;-58
2023/02/18 01:27:47;;;;;;;17.38;8.35;;;11.80;89.30;;;;;;5051313;28;20074;-58
2023/02/18 01:30:15;;;;;;;19.83;8.85;;;11.80;89.30;;;;;;5046578;28;20387;-57
2023/02/18 01:32:41;;;;;;;15.90;9.10;;;11.80;89.10;;;;;;5039414;28;20025;-57
2023/02/18 01:35:09;;;;;;;15.10;7.10;;;11.80;89.10;;;;;;5046357;28;20333;-58
2023/02/18 01:37:34;;;;;;;18.92;8.35;;;11.80;89.10;;;;;;5050395;28;20031;-58
2023/02/18 01:40:00;;;;;;;13.60;6.55;;;11.80;89.20;;;;;;5050994;28;20029;-57
2023/02/18 01:42:28;;;;;;;12.63;7.03;;;11.80;89.10;;;;;;5045552;28;20037;-64
2023/02/18 01:44:54;;;;;;;23.98;7.50;;;11.80;89.00;;;;;;5046216;28;20066;-64
2023/02/18 01:47:20;;;;;;;10.32;6.53;;;11.80;89.00;;;;;;5050042;28;20465;-56
2023/02/18 01:49:50;;;;;;;18.38;8.57;;;11.80;88.90;;;;;;5048224;28;20029;-58
2023/02/18 01:52:23;;;;;;;16.00;7.88;;;11.90;88.80;;;;;;5049921;28;20025;-64
2023/02/18 01:54:53;;;;;;;16.38;6.88;;;11.90;88.70;;;;;;5066142;28;20019;-64
2023/02/18 01:57:23;;;;;;;15.23;6.97;;;11.90;88.60;;;;;;5048288;28;20044;-64
2023/02/18 01:59:55;;;;;;;20.27;8.32;;;11.90;88.60;;;;;;5045770;28;20021;-58
2023/02/18 02:02:25;;;;;;;12.02;7.80;;;11.90;89.20;;;;;;5044863;28;20071;-64
2023/02/18 02:04:51;;;;;;;17.95;7.45;;;11.90;88.70;;;;;;5046044;28;20024;-64
2023/02/18 02:07:20;;;;;;;16.65;7.50;;;11.90;88.60;;;;;;5045714;28;20107;-64
2023/02/18 02:09:49;;;;;;;20.15;9.40;;;11.90;88.60;;;;;;5039308;28;20078;-58
2023/02/18 02:12:45;;;;;;;16.23;7.63;;;11.90;88.60;;;;;;5048568;28;20025;-64
2023/02/18 02:15:26;;;;;;;16.35;8.60;;;11.90;88.60;;;;;;5046292;28;20033;-59
2023/02/18 02:17:57;;;;;;;19.58;8.90;;;11.90;88.80;;;;;;5043765;28;20027;-58
2023/02/18 02:20:58;;;;;;;20.43;8.93;;;11.90;89.00;;;;;;5042989;28;20017;-57
2023/02/18 02:24:00;;;;;;;16.45;9.52;;;11.90;89.10;;;;;;5045886;28;20626;-64
2023/02/18 02:26:44;;;;;;;19.42;9.07;;;11.90;89.10;;;;;;5047173;28;20485;-64
2023/02/18 02:29:12;;;;;;;15.75;8.18;;;11.80;89.40;;;;;;5042409;28;20392;-64
2023/02/18 02:32:03;;;;;;;14.63;7.35;;;11.80;89.40;;;;;;5035897;28;20512;-57
2023/02/18 02:34:39;;;;;;;15.52;8.60;;;11.90;89.30;;;;;;5043957;28;20056;-56
2023/02/18 02:37:24;;;;;;;13.60;7.60;;;11.90;89.30;;;;;;5037623;28;20661;-58
2023/02/18 02:40:10;;;;;;;19.85;9.27;;;11.90;89.20;;;;;;5048647;28;20025;-58
2023/02/18 02:42:53;;;;;;;28.02;11.75;;;11.90;89.30;;;;;;5047701;28;20041;-64
2023/02/18 02:45:28;;;;;;;14.82;8.15;;;11.90;89.30;;;;;;5048980;28;20729;-63
2023/02/18 02:48:20;;;;;;;20.95;9.82;;;11.90;89.50;;;;;;5050035;28;20047;-59
2023/02/18 02:51:10;;;;;;;29.33;10.73;;;11.80;89.50;;;;;;5047493;28;20392;-60
2023/02/18 02:53:38;;;;;;;20.58;11.90;;;11.90;89.70;;;;;;5047301;28;20029;-65
2023/02/18 02:56:04;;;;;;;23.80;11.18;;;11.90;89.80;;;;;;5048917;28;20411;-65
2023/02/18 02:58:30;;;;;;;23.33;10.07;;;11.90;89.80;;;;;;5047785;28;20036;-65
2023/02/18 03:01:51;;;;;;;26.55;10.32;;;11.90;90.10;;;;;;5048103;28;20037;-65
2023/02/18 03:04:27;;;;;;;22.80;13.50;;;12.00;89.80;;;;;;5042288;28;20094;-64
2023/02/18 03:06:59;;;;;;;30.52;12.82;;;11.90;90.00;;;;;;5039769;28;20025;-57
2023/02/18 03:09:55;;;;;;;20.67;10.65;;;11.90;90.10;;;;;;5050346;28;20057;-58
2023/02/18 03:12:53;;;;;;;33.15;14.13;;;11.90;90.00;;;;;;5049910;28;20086;-58
2023/02/18 03:15:48;;;;;;;25.52;12.93;;;12.00;90.30;;;;;;5050287;28;20115;-58
2023/02/18 03:18:16;;;;;;;28.77;14.52;;;12.00;90.10;;;;;;5045957;28;20021;-59
2023/02/18 03:21:14;;;;;;;23.15;12.60;;;11.90;90.30;;;;;;5050483;28;20013;-66
2023/02/18 03:23:56;;;;;;;28.83;13.55;;;12.00;90.40;;;;;;5033979;28;20073;-65
2023/02/18 03:26:24;;;;;;;21.85;13.02;;;12.00;90.50;;;;;;5049263;28;20094;-64
2023/02/18 03:28:53;;;;;;;28.80;14.57;;;12.00;90.40;;;;;;5049277;28;20052;-65
2023/02/18 03:31:21;;;;;;;27.58;13.55;;;12.00;90.50;;;;;;5050360;28;20051;-67
2023/02/18 03:33:56;;;;;;;28.17;12.60;;;12.00;90.50;;;;;;5046442;28;20151;-67
2023/02/18 03:36:23;;;;;;;23.73;12.10;;;12.10;90.60;;;;;;5050673;28;20464;-67
2023/02/18 03:39:14;;;;;;;22.33;10.80;;;12.10;90.60;;;;;;5049542;28;20025;-68
2023/02/18 03:41:41;;;;;;;19.90;10.25;;;12.10;90.60;;;;;;5049415;28;20067;-63
2023/02/18 03:44:08;;;;;;;23.30;11.43;;;12.10;90.60;;;;;;5049303;28;20051;-64
2023/02/18 03:46:36;;;;;;;14.27;9.60;;;12.10;90.60;;;;;;5050360;28;20075;-63
2023/02/18 03:49:02;;;;;;;24.42;10.32;;;12.20;90.70;;;;;;5049855;28;20025;-62
2023/02/18 03:51:28;;;;;;;19.60;10.25;;;12.10;90.70;;;;;;5047470;28;20083;-63
2023/02/18 03:53:54;;;;;;;20.73;9.43;;;12.10;90.70;;;;;;5045894;28;20150;-63
2023/02/18 03:56:20;;;;;;;21.42;9.43;;;12.20;90.70;;;;;;5049271;28;20028;-63
2023/02/18 03:58:46;;;;;;;17.35;9.15;;;12.20;90.70;;;;;;5049553;28;20062;-64
2023/02/18 04:01:12;;;;;;;15.38;7.63;;;12.20;90.70;;;;;;5041803;28;20062;-62
2023/02/18 04:03:38;;;;;;;12.48;7.47;;;12.20;90.60;;;;;;5049149;28;20025;-66
2023/02/18 04:06:04;;;;;;;16.50;7.35;;;12.30;90.70;;;;;;5049321;28;20025;-59
2023/02/18 04:08:29;;;;;;;14.75;7.32;;;12.20;90.70;;;;;;5048789;28;20041;-59
2023/02/18 04:10:55;;;;;;;14.23;5.30;;;12.20;90.80;;;;;;5049177;28;20037;-59
2023/02/18 04:13:21;;;;;;;9.60;5.15;;;12.20;90.90;;;;;;5048625;28;20025;-58
2023/02/18 04:15:50;;;;;;;10.65;5.47;;;12.20;90.90;;;;;;5047752;28;20009;-63
2023/02/18 04:18:16;;;;;;;11.32;5.15;;;12.20;90.90;;;;;;5047716;28;20071;-63
2023/02/18 04:20:42;;;;;;;10.18;5.25;;;12.20;90.90;;;;;;5049084;28;20535;-64
2023/02/18 04:23:08;;;;;;;10.98;4.80;;;12.20;90.90;;;;;;5044618;28;20030;-64
2023/02/18 04:25:34;;;;;;;9.18;5.25;;;12.30;90.90;;;;;;5045789;28;20106;-60
2023/02/18 04:27:59;;;;;;;8.88;5.03;;;12.30;90.90;;;;;;5050071;28;20052;-60
2023/02/18 04:30:25;;;;;;;8.13;4.82;;;12.30;90.90;;;;;;5063451;28;20080;-60
2023/02/18 04:32:51;;;;;;;7.80;4.00;;;12.30;90.90;;;;;;5048730;28;20025;-59
2023/02/18 04:35:17;;;;;;;8.18;5.10;;;12.40;90.80;;;;;;5048098;28;20033;-57
2023/02/18 04:37:43;;;;;;;11.00;5.63;;;12.40;90.80;;;;;;5049182;28;20029;-56
2023/02/18 04:40:08;;;;;;;8.90;4.78;;;12.40;90.80;;;;;;5043399;28;20029;-57
2023/02/18 04:42:34;;;;;;;8.95;4.57;;;12.40;90.80;;;;;;5045339;28;20037;-59
2023/02/18 04:45:00;;;;;;;9.13;5.07;;;12.30;90.80;;;;;;5048310;28;20037;-57
2023/02/18 04:47:26;;;;;;;8.13;4.07;;;12.40;90.90;;;;;;5045650;28;20404;-58
2023/02/18 04:49:52;;;;;;;8.57;4.35;;;12.30;90.80;;;;;;5064766;28;20029;-58
2023/02/18 04:52:17;;;;;;;8.73;4.22;;;12.30;90.80;;;;;;5041863;28;20469;-59
2023/02/18 04:54:43;;;;;;;10.68;3.60;;;12.30;90.90;;;;;;5048806;28;20476;-59
2023/02/18 04:57:09;;;;;;;7.50;3.97;;;12.30;90.90;;;;;;5048271;28;20522;-59
2023/02/18 04:59:35;;;;;;;5.68;3.72;;;12.30;90.90;;;;;;5049235;28;20479;-58
2023/02/18 05:02:01;;;;;;;6.30;3.67;;;12.30;90.90;;;;;;5047794;28;20025;-58
2023/02/18 05:04:26;;;;;;;7.30;4.00;;;12.30;90.90;;;;;;5047655;28;20104;-58
2023/02/18 05:06:52;;;;;;;4.28;2.63;;;12.30;90.90;;;;;;5041829;28;20029;-59
2023/02/18 05:09:18;;;;;;;7.40;3.60;;;12.30;90.90;;;;;;5037937;28;20510;-59
2023/02/18 05:11:44;;;;;;;4.40;2.90;;;12.30;90.90;;;;;;5047914;28;20036;-59
2023/02/18 05:14:09;;;;;;;4.32;2.97;;;12.40;90.90;;;;;;5046427;28;20137;-59
2023/02/18 05:16:35;;;;;;;5.00;3.40;;;12.30;90.90;;;;;;5033590;28;20025;-58
2023/02/18 05:19:01;;;;;;;4.35;2.78;;;12.30;91.00;;;;;;5045378;28;21056;-57
2023/02/18 05:21:26;;;;;;;4.43;2.42;;;12.30;91.00;;;;;;5040391;28;20033;-59
2023/02/18 05:23:52;;;;;;;4.70;2.08;;;12.30;91.00;;;;;;5037610;28;20029;-59
2023/02/18 05:26:17;;;;;;;4.53;2.92;;;12.30;90.90;;;;;;5052386;28;20567;-57
2023/02/18 05:28:43;;;;;;;4.50;2.47;;;12.30;90.90;;;;;;5050497;28;20481;-56
2023/02/18 05:31:09;;;;;;;5.30;2.53;;;12.30;90.90;;;;;;5043991;28;20022;-61
2023/02/18 05:33:34;;;;;;;3.38;2.25;;;12.30;91.00;;;;;;5050463;28;20057;-58
2023/02/18 05:36:00;;;;;;;4.03;2.60;;;12.30;91.00;;;;;;5044935;28;20025;-64
2023/02/18 05:38:26;;;;;;;5.90;2.40;;;12.30;91.00;;;;;;5052270;28;20045;-58
2023/02/18 05:40:51;;;;;;;4.93;2.35;;;12.30;91.00;;;;;;5051870;28;20029;-59
2023/02/18 05:43:17;;;;;;;4.68;2.42;;;12.30;91.00;;;;;;5050544;28;20029;-58
2023/02/18 05:45:43;;;;;;;3.15;2.08;;;12.20;91.00;;;;;;5051541;28;20025;-58
2023/02/18 05:48:08;;;;;;;3.78;2.05;;;12.20;91.00;;;;;;5051979;28;20025;-58
2023/02/18 05:50:34;;;;;;;1.63;1.45;;;12.20;91.00;;;;;;5043502;28;20056;-58
2023/02/18 05:53:00;;;;;;;2.15;1.58;;;12.20;91.10;;;;;;5066546;28;20060;-59
2023/02/18 05:55:26;;;;;;;2.67;1.77;;;12.30;91.00;;;;;;5083113;28;20535;-58
2023/02/18 05:57:52;;;;;;;2.30;1.75;;;12.20;91.00;;;;;;5047307;28;20144;-58
2023/02/18 06:00:18;;;;;;;2.47;1.77;;;12.20;91.00;;;;;;5051704;28;20456;-58
2023/02/18 06:02:43;;;;;;;2.53;1.73;;;12.20;91.10;;;;;;5050537;28;20037;-57
2023/02/18 06:05:10;;;;;;;2.58;1.77;;;12.20;91.00;;;;;;5051109;28;20017;-58
2023/02/18 06:07:36;;;;;;;2.35;1.45;;;12.20;91.00;;;;;;5050997;28;20078;-57
2023/02/18 06:10:02;;;;;;;1.48;1.23;;;12.10;91.00;;;;;;5050150;28;20040;-57
2023/02/18 06:12:28;;;;;;;2.05;1.60;;;12.10;91.10;;;;;;5047322;28;20104;-59
2023/02/18 06:14:53;;;;;;;1.45;1.23;;;12.10;91.00;;;;;;5047204;28;20109;-64
2023/02/18 06:17:21;;;;;;;3.42;1.67;;;12.10;91.00;;;;;;5048980;28;20082;-64
2023/02/18 06:19:47;;;;;;;1.85;1.20;;;12.10;91.00;;;;;;5049966;28;20025;-64
2023/02/18 06:22:13;;;;;;;2.50;1.17;;;12.10;91.00;;;;;;5046783;28;20100;-64
2023/02/18 06:24:39;;;;;;;1.13;1.02;;;12.10;91.00;;;;;;5048634;28;20021;-64
2023/02/18 06:27:05;;;;;;;2.35;1.77;;;12.10;91.00;;;;;;5065579;28;20025;-64
2023/02/18 06:29:31;;;;;;;2.75;1.88;;;12.10;90.90;;;;;;5045422;28;20029;-64
2023/02/18 06:31:57;;;;;;;5.13;2.05;;;12.10;90.90;;;;;;5050295;28;20037;-64
2023/02/18 06:34:24;;;;;;;2.72;2.00;;;12.10;90.90;;;;;;5050719;28;20545;-65
2023/02/18 06:36:50;;;;;;;2.83;1.80;;;12.10;90.90;;;;;;5048025;28;20502;-64
2023/02/18 06:39:15;;;;;;;3.55;2.22;;;12.10;90.80;;;;;;5045515;28;20120;-63
2023/02/18 06:41:41;;;;;;;4.35;2.40;;;12.10;90.80;;;;;;5050635;28;20051;-64
2023/02/18 06:44:07;;;;;;;4.03;2.35;;;12.10;90.80;;;;;;5043101;28;20511;-63
2023/02/18 06:46:33;;;;;;;2.40;2.08;;;12.10;90.80;;;;;;5077970;28;20029;-64
2023/02/18 06:48:59;;;;;;;3.55;2.25;;;12.10;90.80;;;;;;5050160;28;20377;-59
2023/02/18 06:51:24;;;;;;;3.58;2.50;;;12.10;90.80;;;;;;5049920;28;20052;-60
2023/02/18 06:53:50;;;;;;;4.18;2.30;;;12.10;90.70;;;;;;5044647;28;20033;-58
2023/02/18 06:56:16;;;;;;;3.63;2.13;;;12.10;90.70;;;;;;5047314;28;20025;-64
2023/02/18 06:58:42;;;;;;;2.83;1.77;;;12.10;90.70;;;;;;5045929;28;20100;-64
2023/02/18 07:01:07;;;;;;;2.95;2.05;;;12.10;90.70;;;;;;5050066;28;20079;-64
2023/02/18 07:03:33;;;;;;;4.10;2.33;;;12.10;90.70;;;;;;5044733;28;20025;-64
2023/02/18 07:05:59;;;;;;;2.70;1.95;;;12.10;90.70;;;;;;5050595;28;20060;-64
2023/02/18 07:08:25;;;;;;;3.25;2.15;;;12.10;90.70;;;;;;5041465;28;20168;-65
2023/02/18 07:10:50;;;;;;;3.53;1.80;;;12.00;90.70;;;;;;5048030;28;20353;-64
2023/02/18 07:13:16;;;;;;;3.22;2.35;;;12.10;90.70;;;;;;5041152;28;20125;-64
2023/02/18 07:15:42;;;;;;;2.92;1.67;;;12.00;90.70;;;;;;5048632;28;20057;-64
2023/02/18 07:18:08;;;;;;;4.07;2.50;;;12.00;90.70;;;;;;5064982;28;20476;-64
2023/02/18 07:20:34;;;;;;;3.97;2.08;;;12.10;90.70;;;;;;5048352;28;20032;-64
2023/02/18 07:23:00;;;;;;;2.47;2.28;;;12.00;90.70;;;;;;5046547;28;20380;-64
2023/02/18 07:25:25;;;;;;;4.15;2.15;;;12.10;90.70;;;;;;5046832;28;20029;-64
2023/02/18 07:27:51;;;;;;;3.25;2.17;;;12.00;90.60;;;;;;5047614;28;20094;-63
2023/02/18 07:30:19;;;;;;;3.05;1.80;;;12.00;90.60;;;;;;5050479;28;20025;-65
2023/02/18 07:32:45;;;;;;;3.58;2.10;;;11.90;90.60;;;;;;5048893;28;20413;-65
2023/02/18 07:35:13;;;;;;;4.68;2.88;;;12.00;90.60;;;;;;5049408;28;20051;-64
2023/02/18 07:37:42;;;;;;;4.75;2.42;;;12.00;90.60;;;;;;5049779;28;20444;-64
2023/02/18 07:40:11;;;;;;;4.20;2.42;;;11.90;90.50;;;;;;5050035;28;20025;-65
2023/02/18 07:42:37;;;;;;;5.43;2.40;;;11.90;90.50;;;;;;5049682;28;20048;-65
2023/02/18 07:45:03;;;;;;;4.50;2.25;;;11.90;90.50;;;;;;5048166;28;20021;-64
2023/02/18 07:47:28;;;;;;;3.60;2.50;;;11.90;90.50;;;;;;5049482;28;20053;-64
2023/02/18 07:49:54;;;;;;;10.77;2.97;;;12.00;90.40;;;;;;5049928;28;20064;-64
2023/02/18 07:52:20;;;;;;;5.72;2.38;;;12.00;90.30;;;;;;5049463;28;20174;-65
2023/02/18 07:54:45;;;;;;;2.83;2.10;;;12.00;90.30;;;;;;5049103;28;20025;-65
2023/02/18 07:57:11;;;;;;;4.00;1.92;;;12.00;90.30;;;;;;5049824;28;20083;-59
2023/02/18 07:59:37;;;;;;;4.20;2.00;;;12.00;90.20;;;;;;5049273;28;20033;-58
2023/02/18 08:02:04;;;;;;;5.32;2.22;;;12.00;90.10;;;;;;5049447;28;20512;-58
2023/02/18 08:04:30;;;;;;;3.72;1.52;;;11.90;90.10;;;;;;5047597;28;20100;-58
2023/02/18 08:06:55;;;;;;;3.70;1.67;;;11.90;90.10;;;;;;5048041;28;20131;-59
2023/02/18 08:09:21;;;;;;;5.07;2.85;;;11.90;90.10;;;;;;5046389;28;20029;-63
2023/02/18 08:11:47;;;;;;;3.15;1.95;;;11.90;90.00;;;;;;5047442;28;20025;-58
2023/02/18 08:14:12;;;;;;;7.25;1.90;;;11.90;90.00;;;;;;5064168;28;20033;-66
2023/02/18 08:16:38;;;;;;;12.57;2.70;;;11.90;90.00;;;;;;5046880;28;20087;-66
2023/02/18 08:19:04;;;;;;;4.32;2.38;;;11.90;89.50;;;;;;5045388;28;20033;-66
2023/02/18 08:21:30;;;;;;;4.32;2.40;;;11.80;89.40;;;;;;5046349;28;20131;-66
2023/02/18 08:23:57;;;;;;;5.97;1.48;;;11.80;89.50;;;;;;5046603;28;20112;-66
2023/02/18 08:26:23;;;;;;;4.35;2.38;;;11.90;89.30;;;;;;5032985;28;20160;-68
2023/02/18 08:28:49;;;;;;;3.67;2.20;;;11.90;89.30;;;;;;5046852;28;20748;-63
2023/02/18 08:31:24;;;;;;;6.63;2.65;;;11.90;88.40;;;;;;5047923;28;20049;-64
2023/02/18 08:33:50;;;;;;;3.88;1.83;;;11.90;88.20;;;;;;5042062;28;20017;-63
2023/02/18 08:36:16;;;;;;;4.47;1.55;;;11.90;87.90;;;;;;5047677;28;20537;-63
2023/02/18 08:38:42;;;;;;;3.20;1.85;;;11.80;87.60;;;;;;5046154;28;20075;-67
2023/02/18 08:41:08;;;;;;;3.50;2.00;;;11.80;87.50;;;;;;5048002;28;20049;-67
2023/02/18 08:43:35;;;;;;;5.53;1.42;;;11.80;87.70;;;;;;5045563;28;20028;-67
2023/02/18 08:46:01;;;;;;;2.08;1.33;;;11.80;87.50;;;;;;5054765;28;20472;-62
2023/02/18 08:48:27;;;;;;;5.00;1.73;;;11.70;87.50;;;;;;5053118;28;20044;-66
2023/02/18 08:50:53;;;;;;;9.23;2.00;;;11.80;87.60;;;;;;5044117;28;20484;-66
2023/02/18 08:53:19;;;;;;;4.47;2.17;;;11.80;87.60;;;;;;5063228;28;20163;-66
2023/02/18 08:55:45;;;;;;;2.83;1.25;;;11.80;87.60;;;;;;5071846;28;20033;-66
2023/02/18 08:58:11;;;;;;;3.58;1.27;;;11.80;87.30;;;;;;5048832;28;20026;-66
2023/02/18 09:00:40;;;;;;;3.75;1.85;;;11.70;87.20;;;;;;5051676;28;20017;-65
2023/02/18 09:03:06;;;;;;;4.80;1.67;;;11.70;87.30;;;;;;5045715;28;20051;-66
2023/02/18 09:05:51;;;;;;;7.03;2.38;;;11.70;87.30;;;;;;5051607;28;20040;-65
2023/02/18 09:08:18;;;;;;;10.25;1.80;;;11.80;87.30;;;;;;5051811;28;20035;-64
2023/02/18 09:10:44;;;;;;;9.05;2.03;;;11.80;87.00;;;;;;5052431;28;20064;-64
2023/02/18 09:13:09;;;;;;;6.22;1.17;;;11.70;87.30;;;;;;5051866;28;20064;-64
2023/02/18 09:15:35;;;;;;;9.88;2.63;;;11.60;87.40;;;;;;5051744;28;20436;-65
2023/02/18 09:18:01;;;;;;;7.55;2.08;;;11.60;87.40;;;;;;5052104;28;20492;-64
2023/02/18 09:20:27;;;;;;;3.67;1.90;;;11.60;87.70;;;;;;5052700;28;20480;-63
2023/02/18 09:22:52;;;;;;;3.58;1.50;;;11.60;87.80;;;;;;5059840;28;20044;-63
2023/02/18 09:25:18;;;;;;;6.35;2.15;;;11.50;88.00;;;;;;5048365;28;20029;-64
2023/02/18 09:27:45;;;;;;;3.83;1.23;;;11.50;88.20;;;;;;5051794;28;20057;-64
2023/02/18 09:30:11;;;;;;;1.27;0.70;;;11.50;88.20;;;;;;5052722;28;20302;-64
2023/02/18 09:32:36;;;;;;;2.28;1.20;;;11.40;88.40;;;;;;5052306;28;20041;-64
2023/02/18 09:35:04;;;;;;;2.85;1.67;;;11.40;88.40;;;;;;5067338;28;20033;-64
2023/02/18 09:37:30;;;;;;;3.78;1.02;;;11.30;88.60;;;;;;5052314;28;20036;-64
2023/02/18 09:39:55;;;;;;;0.90;0.73;;;11.40;88.70;;;;;;5052299;28;20484;-59
2023/02/18 09:42:28;;;;;;;11.57;1.95;;;11.40;88.70;;;;;;5047071;28;20049;-59
2023/02/18 09:44:58;;;;;;;3.58;1.73;;;11.50;88.60;;;;;;5029639;28;20056;-58
2023/02/18 09:47:45;;;;;;;5.57;2.17;;;11.40;88.60;;;;;;5032581;28;20029;-58
2023/02/18 09:50:33;;;;;;;1.60;1.33;;;11.50;88.70;;;;;;5047089;28;20465;-63
2023/02/18 09:53:01;;;;;;;6.97;2.03;;;11.50;88.80;;;;;;5040686;28;20045;-64
2023/02/18 09:55:39;;;;;;;2.80;1.52;;;11.50;88.60;;;;;;5044128;28;20116;-64
2023/02/18 09:58:19;;;;;;;3.42;1.63;;;11.50;88.50;;;;;;5047583;28;20033;-64
2023/02/18 10:01:04;;;;;;;4.80;1.50;;;11.50;88.50;;;;;;5044367;28;20033;-64
2023/02/18 10:03:30;;;;;;;8.55;1.65;;;11.50;88.70;;;;;;5043332;28;20468;-62
2023/02/18 10:06:07;;;;;;;5.60;1.95;;;11.50;88.60;;;;;;5039500;28;20025;-65
2023/02/18 10:08:41;;;;;;;3.22;1.73;;;11.50;88.40;;;;;;5036534;28;20025;-65
2023/02/18 10:11:20;;;;;;;3.20;1.23;;;11.50;88.60;;;;;;5049323;28;20171;-65
2023/02/18 10:13:46;;;;;;;3.75;1.75;;;11.60;88.40;;;;;;5049221;28;20037;-65
2023/02/18 10:16:17;;;;;;;6.13;1.75;;;11.50;88.10;;;;;;5040451;28;20387;-65
2023/02/18 10:18:47;;;;;;;2.60;1.50;;;11.60;87.90;;;;;;5048873;28;20032;-64
2023/02/18 10:21:17;;;;;;;13.05;2.75;;;11.50;88.00;;;;;;5044544;28;20058;-65
2023/02/18 10:23:51;;;;;;;6.50;1.65;;;11.50;87.90;;;;;;5047028;28;20029;-65
2023/02/18 10:26:18;;;;;;;5.10;1.45;;;11.60;88.00;;;;;;5047051;28;20028;-64
2023/02/18 10:28:45;;;;;;;3.95;1.60;;;11.50;88.60;;;;;;5046434;28;20017;-65
2023/02/18 10:31:18;;;;;;;1.92;1.42;;;11.60;88.00;;;;;;5050068;28;20116;-61
2023/02/18 10:34:02;;;;;;;2.33;1.00;;;11.60;88.10;;;;;;5044438;28;20425;-60
2023/02/18 10:36:54;;;;;;;2.38;1.45;;;11.50;88.20;;;;;;5048995;28;20020;-69
2023/02/18 10:39:31;;;;;;;4.93;1.58;;;11.50;88.40;;;;;;5047779;28;20490;-64
2023/02/18 10:42:18;;;;;;;9.00;2.45;;;11.50;88.60;;;;;;5043634;28;20041;-64
2023/02/18 10:44:49;;;;;;;4.90;1.08;;;11.50;88.60;;;;;;5048653;28;20380;-64
2023/02/18 10:47:55;;;;;;;2.47;1.37;;;11.40;88.90;;;;;;5049560;28;20033;-66
2023/02/18 10:50:33;;;;;;;3.20;1.40;;;11.40;89.20;;;;;;5049824;28;20032;-66
2023/02/18 10:53:07;;;;;;;9.40;2.38;;;11.30;89.40;;;;;;5057985;28;20033;-66
2023/02/18 10:55:36;;;;;;;2.70;1.42;;;11.30;89.40;;;;;;5054007;28;20528;-66
2023/02/18 10:58:02;;;;;;;6.65;1.45;;;11.30;90.00;;;;;;5059600;28;20040;-65
2023/02/18 11:00:34;;;;;;;3.70;1.35;;;11.40;89.50;;;;;;5041072;28;20022;-66
2023/02/18 11:03:16;;;;;;;5.00;1.65;;;11.40;89.30;;;;;;5040529;28;20029;-62
2023/02/18 11:05:44;;;;;;;4.57;1.50;;;11.50;89.40;;;;;;5040886;28;20028;-66
2023/02/18 11:08:20;;;;;;;8.27;1.77;;;11.50;89.20;;;;;;5035253;28;20033;-62
2023/02/18 11:10:47;;;;;;;8.00;1.60;;;11.50;89.10;;;;;;5043137;28;20052;-61
2023/02/18 11:13:16;;;;;;;11.70;1.85;;;11.60;89.10;;;;;;5046332;28;20051;-66
2023/02/18 11:16:08;;;;;;;5.18;2.13;;;11.60;88.90;;;;;;5045495;28;20124;-66
2023/02/18 11:18:38;;;;;;;7.45;2.17;;;11.70;88.60;;;;;;5046236;28;20025;-66
2023/02/18 11:21:37;;;;;;;6.30;2.03;;;11.70;88.70;;;;;;5043129;28;20041;-65
2023/02/18 11:24:13;;;;;;;7.50;2.00;;;11.70;88.60;;;;;;5022314;28;20041;-65
2023/02/18 11:26:39;;;;;;;6.85;1.98;;;11.70;88.50;;;;;;5039550;28;20485;-66
2023/02/18 11:29:22;;;;;;;3.70;1.50;;;11.80;88.40;;;;;;5042578;28;20048;-66
2023/02/18 11:31:54;;;;;;;2.95;1.60;;;11.80;88.20;;;;;;5043854;28;20032;-65
2023/02/18 11:34:27;;;;;;;3.05;1.75;;;11.90;88.10;;;;;;5041624;28;20026;-65
2023/02/18 11:36:53;;;;;;;3.22;1.80;;;11.90;87.80;;;;;;5044977;28;20056;-65
2023/02/18 11:39:25;;;;;;;3.83;1.95;;;11.90;87.80;;;;;;5058614;28;20079;-66
2023/02/18 11:42:06;;;;;;;5.70;2.63;;;12.00;87.70;;;;;;5042859;28;20145;-64
2023/02/18 11:44:32;;;;;;;4.15;1.92;;;12.10;87.20;;;;;;5032439;28;20037;-65
2023/02/18 11:47:02;;;;;;;7.93;2.05;;;12.00;87.60;;;;;;5045177;28;20091;-65
2023/02/18 11:49:30;;;;;;;10.65;2.15;;;12.10;87.20;;;;;;5038022;28;20021;-64
2023/02/18 11:52:17;;;;;;;7.38;1.85;;;12.10;87.10;;;;;;5042296;28;20031;-64
2023/02/18 11:54:57;;;;;;;7.82;2.60;;;12.10;87.10;;;;;;5043886;28;20186;-64
2023/02/18 11:57:25;;;;;;;3.58;1.70;;;12.00;87.10;;;;;;5037382;28;20041;-64
2023/02/18 11:59:51;;;;;;;2.25;1.77;;;12.10;87.20;;;;;;5044201;28;20029;-59
2023/02/18 12:02:34;;;;;;;5.38;2.10;;;12.20;87.10;;;;;;5046065;28;20024;-60
2023/02/18 12:05:13;;;;;;;3.25;1.55;;;12.20;86.90;;;;;;5041632;28;20013;-59
2023/02/18 12:07:55;;;;;;;5.22;2.03;;;12.20;87.00;;;;;;5046104;28;20021;-60
2023/02/18 12:10:41;;;;;;;7.90;1.95;;;12.20;87.10;;;;;;5048365;28;20115;-59
2023/02/18 12:13:16;;;;;;;5.43;2.33;;;12.20;87.40;;;;;;5046167;28;20098;-60
2023/02/18 12:16:03;;;;;;;10.20;1.98;;;12.20;87.50;;;;;;5043487;28;20384;-64
2023/02/18 12:18:59;;;;;;;4.15;2.05;;;12.20;87.60;;;;;;5040828;28;20112;-64
2023/02/18 12:21:53;;;;;;;7.45;2.22;;;12.30;87.70;;;;;;5043886;28;20090;-64
2023/02/18 12:24:34;;;;;;;5.90;2.38;;;12.20;88.00;;;;;;5062361;28;20052;-59
2023/02/18 12:27:29;;;;;;;6.35;2.40;;;12.20;88.00;;;;;;5047453;28;20025;-59
2023/02/18 12:30:19;;;;;;;7.05;2.67;;;12.20;88.20;;;;;;5042740;28;20573;-66
2023/02/18 12:33:12;;;;;;;10.13;2.33;;;12.20;88.40;;;;;;5039760;28;20028;-59
2023/02/18 12:35:47;;;;;;;;;;;12.10;88.40;;;;;;5043559;28;20537;-58
2023/02/18 12:38:31;;;;;;;5.25;2.45;;;12.10;88.60;;;;;;5041746;28;20286;-59
2023/02/18 12:41:25;;;;;;;9.82;2.92;;;12.10;88.70;;;;;;5039717;28;20025;-59
2023/02/18 12:44:06;;;;;;;5.45;2.65;;;12.10;88.70;;;;;;5040381;28;20032;-59
2023/02/18 12:46:40;;;;;;;4.95;2.25;;;12.10;88.70;;;;;;5048241;28;20021;-58
2023/02/18 12:49:24;;;;;;;8.85;2.20;;;12.10;88.50;;;;;;5040925;28;20025;-59
2023/02/18 12:51:52;;;;;;;11.02;2.72;;;12.20;88.40;;;;;;5042784;28;20095;-64
2023/02/18 12:55:00;;;;;;;4.25;2.35;;;12.20;88.40;;;;;;5047080;28;20021;-64
2023/02/18 12:57:41;;;;;;;11.50;3.22;;;12.30;88.20;;;;;;5042527;28;20052;-64
2023/02/18 13:00:54;;;;;;;7.75;2.25;;;12.30;88.00;;;;;;5045455;28;20383;-64
2023/02/18 13:03:23;;;;;;;8.27;2.30;;;12.30;87.50;;;;;;5034954;28;20085;-64